sensor_id;sensor_type;location;lat;lon;timestamp;P1;durP1;ratioP1;P2;durP2;ratioP2
39314;SDS011;28703;44.412;11.918;2023-10-19T00:00:57;42.45;;;27.05;;
39314;SDS011;28703;44.412;11.918;2023-10-19T00:03:25;50.83;;;30.05;;
39314;SDS011;28703;44.412;11.918;2023-10-19T00:05:52;53.33;;;29.45;;
39314;SDS011;28703;44.412;11.918;2023-10-19T00:08:20;52.78;;;31.02;;
39314;SDS011;28703;44.412;11.918;2023-10-19T00:10:47;51.65;;;29.67;;
39314;SDS011;28703;44.412;11.918;2023-10-19T00:13:40;52.88;;;28.92;;
39314;SDS011;28703;44.412;11.918;2023-10-19T00:16:09;54.17;;;30.70;;
39314;SDS011;28703;44.412;11.918;2023-10-19T00:18:42;56.10;;;29.45;;
39314;SDS011;28703;44.412;11.918;2023-10-19T00:21:08;51.63;;;28.15;;
39314;SDS011;28703;44.412;11.918;2023-10-19T00:23:54;56.03;;;29.48;;
39314;SDS011;28703;44.412;11.918;2023-10-19T00:26:30;56.70;;;30.17;;
39314;SDS011;28703;44.412;11.918;2023-10-19T00:28:59;57.15;;;30.80;;
39314;SDS011;28703;44.412;11.918;2023-10-19T00:31:31;65.45;;;31.63;;
39314;SDS011;28703;44.412;11.918;2023-10-19T00:33:59;58.75;;;32.45;;
39314;SDS011;28703;44.412;11.918;2023-10-19T00:36:31;54.45;;;32.60;;
39314;SDS011;28703;44.412;11.918;2023-10-19T00:39:00;60.30;;;33.33;;
39314;SDS011;28703;44.412;11.918;2023-10-19T00:41:30;58.25;;;31.92;;
39314;SDS011;28703;44.412;11.918;2023-10-19T00:43:59;56.70;;;32.55;;
39314;SDS011;28703;44.412;11.918;2023-10-19T00:46:29;54.95;;;30.65;;
39314;SDS011;28703;44.412;11.918;2023-10-19T00:49:03;53.60;;;31.25;;
39314;SDS011;28703;44.412;11.918;2023-10-19T00:51:39;50.15;;;29.95;;
39314;SDS011;28703;44.412;11.918;2023-10-19T00:54:18;47.63;;;28.65;;
39314;SDS011;28703;44.412;11.918;2023-10-19T00:56:56;51.15;;;29.58;;
39314;SDS011;28703;44.412;11.918;2023-10-19T00:59:25;45.47;;;30.55;;
39314;SDS011;28703;44.412;11.918;2023-10-19T01:02:03;43.53;;;29.15;;
39314;SDS011;28703;44.412;11.918;2023-10-19T01:04:53;42.83;;;28.92;;
39314;SDS011;28703;44.412;11.918;2023-10-19T01:07:27;44.47;;;29.48;;
39314;SDS011;28703;44.412;11.918;2023-10-19T01:09:54;44.15;;;30.38;;
39314;SDS011;28703;44.412;11.918;2023-10-19T01:12:22;44.22;;;30.98;;
39314;SDS011;28703;44.412;11.918;2023-10-19T01:17:35;44.00;;;31.05;;
39314;SDS011;28703;44.412;11.918;2023-10-19T01:20:15;51.35;;;32.38;;
39314;SDS011;28703;44.412;11.918;2023-10-19T01:23:05;50.58;;;31.95;;
39314;SDS011;28703;44.412;11.918;2023-10-19T01:28:25;48.33;;;32.20;;
39314;SDS011;28703;44.412;11.918;2023-10-19T01:31:19;45.10;;;29.08;;
39314;SDS011;28703;44.412;11.918;2023-10-19T01:33:58;45.22;;;29.73;;
39314;SDS011;28703;44.412;11.918;2023-10-19T01:36:32;44.00;;;30.65;;
39314;SDS011;28703;44.412;11.918;2023-10-19T01:39:07;56.90;;;33.17;;
39314;SDS011;28703;44.412;11.918;2023-10-19T01:41:37;49.67;;;33.92;;
39314;SDS011;28703;44.412;11.918;2023-10-19T01:44:06;50.08;;;34.67;;
39314;SDS011;28703;44.412;11.918;2023-10-19T01:46:32;53.13;;;34.35;;
39314;SDS011;28703;44.412;11.918;2023-10-19T01:49:00;53.25;;;33.17;;
39314;SDS011;28703;44.412;11.918;2023-10-19T01:51:29;54.72;;;34.75;;
39314;SDS011;28703;44.412;11.918;2023-10-19T01:54:03;50.88;;;34.47;;
39314;SDS011;28703;44.412;11.918;2023-10-19T01:56:30;59.33;;;36.33;;
39314;SDS011;28703;44.412;11.918;2023-10-19T01:58:58;58.13;;;36.00;;
39314;SDS011;28703;44.412;11.918;2023-10-19T02:01:24;55.25;;;35.67;;
39314;SDS011;28703;44.412;11.918;2023-10-19T02:03:53;56.85;;;36.88;;
39314;SDS011;28703;44.412;11.918;2023-10-19T02:06:23;62.08;;;35.15;;
39314;SDS011;28703;44.412;11.918;2023-10-19T02:09:06;57.65;;;32.70;;
39314;SDS011;28703;44.412;11.918;2023-10-19T02:11:57;82.47;;;34.72;;
39314;SDS011;28703;44.412;11.918;2023-10-19T02:14:25;54.38;;;34.40;;
39314;SDS011;28703;44.412;11.918;2023-10-19T02:16:54;62.83;;;33.53;;
39314;SDS011;28703;44.412;11.918;2023-10-19T02:19:25;63.30;;;31.67;;
39314;SDS011;28703;44.412;11.918;2023-10-19T02:21:53;59.35;;;35.78;;
39314;SDS011;28703;44.412;11.918;2023-10-19T02:24:23;57.42;;;33.15;;
39314;SDS011;28703;44.412;11.918;2023-10-19T02:26:52;71.10;;;37.08;;
39314;SDS011;28703;44.412;11.918;2023-10-19T02:29:22;65.40;;;36.63;;
39314;SDS011;28703;44.412;11.918;2023-10-19T02:31:49;72.85;;;34.25;;
39314;SDS011;28703;44.412;11.918;2023-10-19T02:34:15;63.20;;;32.47;;
39314;SDS011;28703;44.412;11.918;2023-10-19T02:36:41;56.30;;;34.65;;
39314;SDS011;28703;44.412;11.918;2023-10-19T02:39:09;43.17;;;27.88;;
39314;SDS011;28703;44.412;11.918;2023-10-19T02:41:40;44.22;;;25.77;;
39314;SDS011;28703;44.412;11.918;2023-10-19T02:44:09;43.65;;;25.70;;
39314;SDS011;28703;44.412;11.918;2023-10-19T02:46:43;43.25;;;25.17;;
39314;SDS011;28703;44.412;11.918;2023-10-19T02:49:12;44.30;;;26.35;;
39314;SDS011;28703;44.412;11.918;2023-10-19T02:51:43;38.55;;;24.13;;
39314;SDS011;28703;44.412;11.918;2023-10-19T02:54:10;45.90;;;27.20;;
39314;SDS011;28703;44.412;11.918;2023-10-19T02:56:48;44.85;;;28.33;;
39314;SDS011;28703;44.412;11.918;2023-10-19T02:59:20;46.45;;;28.45;;
39314;SDS011;28703;44.412;11.918;2023-10-19T03:01:48;44.40;;;28.65;;
39314;SDS011;28703;44.412;11.918;2023-10-19T03:07:07;50.20;;;30.17;;
39314;SDS011;28703;44.412;11.918;2023-10-19T03:09:33;49.83;;;31.27;;
39314;SDS011;28703;44.412;11.918;2023-10-19T03:12:02;51.30;;;32.58;;
39314;SDS011;28703;44.412;11.918;2023-10-19T03:14:30;48.30;;;31.75;;
39314;SDS011;28703;44.412;11.918;2023-10-19T03:17:00;53.05;;;32.30;;
39314;SDS011;28703;44.412;11.918;2023-10-19T03:19:27;49.80;;;32.28;;
39314;SDS011;28703;44.412;11.918;2023-10-19T03:21:53;52.40;;;31.52;;
39314;SDS011;28703;44.412;11.918;2023-10-19T03:24:20;46.15;;;31.92;;
39314;SDS011;28703;44.412;11.918;2023-10-19T03:29:34;56.22;;;32.97;;
39314;SDS011;28703;44.412;11.918;2023-10-19T03:32:04;58.92;;;33.55;;
39314;SDS011;28703;44.412;11.918;2023-10-19T03:34:34;54.75;;;34.53;;
39314;SDS011;28703;44.412;11.918;2023-10-19T03:37:00;66.55;;;33.65;;
39314;SDS011;28703;44.412;11.918;2023-10-19T03:39:33;61.20;;;33.25;;
39314;SDS011;28703;44.412;11.918;2023-10-19T03:41:59;60.10;;;33.28;;
39314;SDS011;28703;44.412;11.918;2023-10-19T03:44:26;56.95;;;34.30;;
39314;SDS011;28703;44.412;11.918;2023-10-19T03:46:52;53.92;;;32.08;;
39314;SDS011;28703;44.412;11.918;2023-10-19T03:49:29;45.42;;;30.70;;
39314;SDS011;28703;44.412;11.918;2023-10-19T03:52:04;51.88;;;31.25;;
39314;SDS011;28703;44.412;11.918;2023-10-19T03:54:33;53.22;;;32.35;;
39314;SDS011;28703;44.412;11.918;2023-10-19T03:57:08;50.67;;;30.10;;
39314;SDS011;28703;44.412;11.918;2023-10-19T03:59:44;46.58;;;31.88;;
39314;SDS011;28703;44.412;11.918;2023-10-19T04:02:12;46.10;;;30.35;;
39314;SDS011;28703;44.412;11.918;2023-10-19T04:04:39;48.38;;;31.77;;
39314;SDS011;28703;44.412;11.918;2023-10-19T04:07:12;43.50;;;29.02;;
39314;SDS011;28703;44.412;11.918;2023-10-19T04:09:51;48.83;;;28.30;;
39314;SDS011;28703;44.412;11.918;2023-10-19T04:12:32;43.72;;;27.50;;
39314;SDS011;28703;44.412;11.918;2023-10-19T04:15:05;42.55;;;27.52;;
39314;SDS011;28703;44.412;11.918;2023-10-19T04:17:37;43.50;;;27.35;;
39314;SDS011;28703;44.412;11.918;2023-10-19T04:20:07;42.80;;;30.02;;
39314;SDS011;28703;44.412;11.918;2023-10-19T04:22:54;40.33;;;27.48;;
39314;SDS011;28703;44.412;11.918;2023-10-19T04:25:19;40.47;;;24.73;;
39314;SDS011;28703;44.412;11.918;2023-10-19T04:27:46;35.95;;;23.45;;
39314;SDS011;28703;44.412;11.918;2023-10-19T04:30:14;32.72;;;22.25;;
39314;SDS011;28703;44.412;11.918;2023-10-19T04:32:41;45.78;;;24.98;;
39314;SDS011;28703;44.412;11.918;2023-10-19T04:35:11;41.35;;;24.92;;
39314;SDS011;28703;44.412;11.918;2023-10-19T04:37:40;38.90;;;24.88;;
39314;SDS011;28703;44.412;11.918;2023-10-19T04:40:10;33.80;;;22.70;;
39314;SDS011;28703;44.412;11.918;2023-10-19T04:42:37;32.40;;;21.38;;
39314;SDS011;28703;44.412;11.918;2023-10-19T04:45:04;32.80;;;23.83;;
39314;SDS011;28703;44.412;11.918;2023-10-19T04:47:31;31.80;;;22.38;;
39314;SDS011;28703;44.412;11.918;2023-10-19T04:50:01;30.00;;;21.65;;
39314;SDS011;28703;44.412;11.918;2023-10-19T04:52:28;36.53;;;24.13;;
39314;SDS011;28703;44.412;11.918;2023-10-19T04:54:54;35.35;;;25.75;;
39314;SDS011;28703;44.412;11.918;2023-10-19T04:57:20;36.38;;;25.08;;
39314;SDS011;28703;44.412;11.918;2023-10-19T04:59:46;34.85;;;23.90;;
39314;SDS011;28703;44.412;11.918;2023-10-19T05:02:12;34.85;;;22.58;;
39314;SDS011;28703;44.412;11.918;2023-10-19T05:04:38;31.00;;;22.77;;
39314;SDS011;28703;44.412;11.918;2023-10-19T05:07:06;30.90;;;22.20;;
39314;SDS011;28703;44.412;11.918;2023-10-19T05:09:34;29.48;;;22.50;;
39314;SDS011;28703;44.412;11.918;2023-10-19T05:12:03;34.10;;;22.05;;
39314;SDS011;28703;44.412;11.918;2023-10-19T05:14:34;30.88;;;22.42;;
39314;SDS011;28703;44.412;11.918;2023-10-19T05:17:03;33.42;;;22.67;;
39314;SDS011;28703;44.412;11.918;2023-10-19T05:19:30;29.05;;;20.33;;
39314;SDS011;28703;44.412;11.918;2023-10-19T05:21:57;26.85;;;19.83;;
39314;SDS011;28703;44.412;11.918;2023-10-19T05:24:22;33.13;;;20.48;;
39314;SDS011;28703;44.412;11.918;2023-10-19T05:26:48;29.50;;;20.83;;
39314;SDS011;28703;44.412;11.918;2023-10-19T05:29:14;26.27;;;20.25;;
39314;SDS011;28703;44.412;11.918;2023-10-19T05:31:40;31.92;;;22.65;;
39314;SDS011;28703;44.412;11.918;2023-10-19T05:34:06;29.40;;;22.02;;
39314;SDS011;28703;44.412;11.918;2023-10-19T05:36:33;28.25;;;20.42;;
39314;SDS011;28703;44.412;11.918;2023-10-19T05:38:59;26.40;;;20.17;;
39314;SDS011;28703;44.412;11.918;2023-10-19T05:41:25;27.92;;;20.58;;
39314;SDS011;28703;44.412;11.918;2023-10-19T05:43:52;29.73;;;19.85;;
39314;SDS011;28703;44.412;11.918;2023-10-19T05:46:18;28.77;;;18.00;;
39314;SDS011;28703;44.412;11.918;2023-10-19T05:48:47;24.77;;;18.60;;
39314;SDS011;28703;44.412;11.918;2023-10-19T05:51:14;24.52;;;19.30;;
39314;SDS011;28703;44.412;11.918;2023-10-19T05:53:40;25.10;;;19.88;;
39314;SDS011;28703;44.412;11.918;2023-10-19T05:56:07;24.00;;;19.05;;
39314;SDS011;28703;44.412;11.918;2023-10-19T05:58:32;27.80;;;19.58;;
39314;SDS011;28703;44.412;11.918;2023-10-19T06:00:59;26.15;;;19.70;;
39314;SDS011;28703;44.412;11.918;2023-10-19T06:03:25;23.75;;;19.20;;
39314;SDS011;28703;44.412;11.918;2023-10-19T06:05:50;26.48;;;20.55;;
39314;SDS011;28703;44.412;11.918;2023-10-19T06:08:16;22.40;;;18.95;;
39314;SDS011;28703;44.412;11.918;2023-10-19T06:10:42;24.13;;;19.38;;
39314;SDS011;28703;44.412;11.918;2023-10-19T06:13:08;22.60;;;17.67;;
39314;SDS011;28703;44.412;11.918;2023-10-19T06:15:35;19.77;;;17.20;;
39314;SDS011;28703;44.412;11.918;2023-10-19T06:18:01;21.75;;;17.92;;
39314;SDS011;28703;44.412;11.918;2023-10-19T06:20:26;21.20;;;18.17;;
39314;SDS011;28703;44.412;11.918;2023-10-19T06:22:53;21.52;;;18.35;;
39314;SDS011;28703;44.412;11.918;2023-10-19T06:25:21;23.92;;;18.50;;
39314;SDS011;28703;44.412;11.918;2023-10-19T06:27:48;21.67;;;17.60;;
39314;SDS011;28703;44.412;11.918;2023-10-19T06:30:15;23.70;;;18.67;;
39314;SDS011;28703;44.412;11.918;2023-10-19T06:32:48;22.10;;;19.05;;
39314;SDS011;28703;44.412;11.918;2023-10-19T06:35:16;24.38;;;20.52;;
39314;SDS011;28703;44.412;11.918;2023-10-19T06:37:43;27.25;;;20.95;;
39314;SDS011;28703;44.412;11.918;2023-10-19T06:40:10;20.83;;;18.58;;
39314;SDS011;28703;44.412;11.918;2023-10-19T06:42:43;19.40;;;16.27;;
39314;SDS011;28703;44.412;11.918;2023-10-19T06:45:10;19.00;;;16.33;;
39314;SDS011;28703;44.412;11.918;2023-10-19T06:47:48;18.13;;;15.30;;
39314;SDS011;28703;44.412;11.918;2023-10-19T06:50:15;15.32;;;13.82;;
39314;SDS011;28703;44.412;11.918;2023-10-19T06:52:43;17.50;;;15.57;;
39314;SDS011;28703;44.412;11.918;2023-10-19T06:55:12;19.35;;;14.60;;
39314;SDS011;28703;44.412;11.918;2023-10-19T06:57:46;16.70;;;14.93;;
39314;SDS011;28703;44.412;11.918;2023-10-19T07:00:14;17.63;;;12.88;;
39314;SDS011;28703;44.412;11.918;2023-10-19T07:02:45;15.35;;;13.23;;
39314;SDS011;28703;44.412;11.918;2023-10-19T07:05:11;16.13;;;13.02;;
39314;SDS011;28703;44.412;11.918;2023-10-19T07:07:40;16.38;;;13.05;;
39314;SDS011;28703;44.412;11.918;2023-10-19T07:10:09;16.08;;;12.55;;
39314;SDS011;28703;44.412;11.918;2023-10-19T07:12:37;13.80;;;12.25;;
39314;SDS011;28703;44.412;11.918;2023-10-19T07:15:09;13.93;;;11.85;;
39314;SDS011;28703;44.412;11.918;2023-10-19T07:17:48;16.38;;;13.60;;
39314;SDS011;28703;44.412;11.918;2023-10-19T07:20:17;15.57;;;12.82;;
39314;SDS011;28703;44.412;11.918;2023-10-19T07:23:02;15.35;;;13.07;;
39314;SDS011;28703;44.412;11.918;2023-10-19T07:25:35;16.65;;;12.75;;
39314;SDS011;28703;44.412;11.918;2023-10-19T07:28:13;13.40;;;11.57;;
39314;SDS011;28703;44.412;11.918;2023-10-19T07:30:40;11.15;;;9.98;;
39314;SDS011;28703;44.412;11.918;2023-10-19T07:33:08;11.77;;;10.23;;
39314;SDS011;28703;44.412;11.918;2023-10-19T07:35:35;10.90;;;9.80;;
39314;SDS011;28703;44.412;11.918;2023-10-19T07:38:07;11.32;;;9.68;;
39314;SDS011;28703;44.412;11.918;2023-10-19T07:40:34;10.70;;;9.18;;
39314;SDS011;28703;44.412;11.918;2023-10-19T07:43:00;8.98;;;8.07;;
39314;SDS011;28703;44.412;11.918;2023-10-19T07:45:29;10.23;;;9.23;;
39314;SDS011;28703;44.412;11.918;2023-10-19T07:47:56;9.13;;;8.18;;
39314;SDS011;28703;44.412;11.918;2023-10-19T07:50:23;10.38;;;8.43;;
39314;SDS011;28703;44.412;11.918;2023-10-19T07:52:50;9.10;;;8.20;;
39314;SDS011;28703;44.412;11.918;2023-10-19T07:55:17;8.85;;;7.95;;
39314;SDS011;28703;44.412;11.918;2023-10-19T07:57:44;10.73;;;7.80;;
39314;SDS011;28703;44.412;11.918;2023-10-19T08:00:11;9.20;;;8.40;;
39314;SDS011;28703;44.412;11.918;2023-10-19T08:02:41;9.00;;;8.07;;
39314;SDS011;28703;44.412;11.918;2023-10-19T08:05:07;10.27;;;8.40;;
39314;SDS011;28703;44.412;11.918;2023-10-19T08:07:34;9.15;;;8.30;;
39314;SDS011;28703;44.412;11.918;2023-10-19T08:10:01;9.20;;;8.30;;
39314;SDS011;28703;44.412;11.918;2023-10-19T08:12:30;10.05;;;8.52;;
39314;SDS011;28703;44.412;11.918;2023-10-19T08:14:58;9.38;;;8.57;;
39314;SDS011;28703;44.412;11.918;2023-10-19T08:17:24;9.82;;;8.93;;
39314;SDS011;28703;44.412;11.918;2023-10-19T08:19:50;9.45;;;8.57;;
39314;SDS011;28703;44.412;11.918;2023-10-19T08:22:16;10.27;;;9.27;;
39314;SDS011;28703;44.412;11.918;2023-10-19T08:24:42;10.93;;;9.93;;
39314;SDS011;28703;44.412;11.918;2023-10-19T08:27:15;10.82;;;9.27;;
39314;SDS011;28703;44.412;11.918;2023-10-19T08:29:42;10.90;;;9.82;;
39314;SDS011;28703;44.412;11.918;2023-10-19T08:32:08;10.25;;;9.35;;
39314;SDS011;28703;44.412;11.918;2023-10-19T08:34:35;11.27;;;10.18;;
39314;SDS011;28703;44.412;11.918;2023-10-19T08:37:02;11.40;;;10.30;;
39314;SDS011;28703;44.412;11.918;2023-10-19T08:39:30;11.43;;;10.32;;
39314;SDS011;28703;44.412;11.918;2023-10-19T08:42:03;11.88;;;10.52;;
39314;SDS011;28703;44.412;11.918;2023-10-19T08:44:29;12.70;;;10.85;;
39314;SDS011;28703;44.412;11.918;2023-10-19T08:46:56;13.23;;;11.95;;
39314;SDS011;28703;44.412;11.918;2023-10-19T08:49:24;11.93;;;10.82;;
39314;SDS011;28703;44.412;11.918;2023-10-19T08:51:51;12.25;;;11.10;;
39314;SDS011;28703;44.412;11.918;2023-10-19T08:54:19;14.07;;;12.57;;
39314;SDS011;28703;44.412;11.918;2023-10-19T08:56:46;13.95;;;12.48;;
39314;SDS011;28703;44.412;11.918;2023-10-19T08:59:12;15.98;;;13.82;;
39314;SDS011;28703;44.412;11.918;2023-10-19T09:01:40;15.63;;;14.02;;
39314;SDS011;28703;44.412;11.918;2023-10-19T09:04:10;14.70;;;13.30;;
39314;SDS011;28703;44.412;11.918;2023-10-19T09:06:36;16.02;;;13.45;;
39314;SDS011;28703;44.412;11.918;2023-10-19T09:09:11;14.50;;;13.05;;
39314;SDS011;28703;44.412;11.918;2023-10-19T09:11:46;14.95;;;13.55;;
39314;SDS011;28703;44.412;11.918;2023-10-19T09:14:13;14.25;;;11.93;;
39314;SDS011;28703;44.412;11.918;2023-10-19T09:16:55;15.13;;;13.63;;
39314;SDS011;28703;44.412;11.918;2023-10-19T09:22:05;16.02;;;14.43;;
39314;SDS011;28703;44.412;11.918;2023-10-19T09:24:47;16.00;;;13.80;;
39314;SDS011;28703;44.412;11.918;2023-10-19T09:27:18;16.98;;;15.18;;
39314;SDS011;28703;44.412;11.918;2023-10-19T09:29:45;16.73;;;15.02;;
39314;SDS011;28703;44.412;11.918;2023-10-19T09:32:12;16.55;;;14.85;;
39314;SDS011;28703;44.412;11.918;2023-10-19T09:34:39;17.92;;;15.18;;
39314;SDS011;28703;44.412;11.918;2023-10-19T09:37:08;16.95;;;15.25;;
39314;SDS011;28703;44.412;11.918;2023-10-19T09:39:36;16.73;;;15.02;;
39314;SDS011;28703;44.412;11.918;2023-10-19T09:42:06;17.23;;;15.50;;
39314;SDS011;28703;44.412;11.918;2023-10-19T09:47:07;17.60;;;15.80;;
39314;SDS011;28703;44.412;11.918;2023-10-19T09:49:38;18.45;;;16.55;;
39314;SDS011;28703;44.412;11.918;2023-10-19T09:52:05;18.10;;;16.30;;
39314;SDS011;28703;44.412;11.918;2023-10-19T09:54:52;17.58;;;15.77;;
39314;SDS011;28703;44.412;11.918;2023-10-19T09:57:36;19.05;;;17.08;;
39314;SDS011;28703;44.412;11.918;2023-10-19T10:00:10;19.17;;;17.23;;
39314;SDS011;28703;44.412;11.918;2023-10-19T10:02:42;19.88;;;17.33;;
39314;SDS011;28703;44.412;11.918;2023-10-19T10:11:16;17.38;;;15.45;;
39314;SDS011;28703;44.412;11.918;2023-10-19T10:13:48;17.25;;;15.55;;
39314;SDS011;28703;44.412;11.918;2023-10-19T10:16:19;15.23;;;13.85;;
39314;SDS011;28703;44.412;11.918;2023-10-19T10:18:47;17.15;;;15.23;;
39314;SDS011;28703;44.412;11.918;2023-10-19T10:21:16;15.13;;;13.60;;
39314;SDS011;28703;44.412;11.918;2023-10-19T10:26:19;15.95;;;14.43;;
39314;SDS011;28703;44.412;11.918;2023-10-19T10:31:40;16.92;;;15.10;;
39314;SDS011;28703;44.412;11.918;2023-10-19T10:34:10;17.75;;;15.95;;
39314;SDS011;28703;44.412;11.918;2023-10-19T10:39:27;17.23;;;15.50;;
39314;SDS011;28703;44.412;11.918;2023-10-19T10:41:59;16.83;;;14.93;;
39314;SDS011;28703;44.412;11.918;2023-10-19T10:47:16;17.13;;;15.52;;
39314;SDS011;28703;44.412;11.918;2023-10-19T10:49:56;15.95;;;14.35;;
39314;SDS011;28703;44.412;11.918;2023-10-19T10:52:31;17.92;;;15.52;;
39314;SDS011;28703;44.412;11.918;2023-10-19T10:57:36;17.77;;;15.00;;
39314;SDS011;28703;44.412;11.918;2023-10-19T11:02:46;17.00;;;15.32;;
39314;SDS011;28703;44.412;11.918;2023-10-19T11:05:23;16.38;;;14.77;;
39314;SDS011;28703;44.412;11.918;2023-10-19T11:10:35;16.02;;;14.32;;
39314;SDS011;28703;44.412;11.918;2023-10-19T11:13:08;15.45;;;13.88;;
39314;SDS011;28703;44.412;11.918;2023-10-19T11:15:36;15.00;;;13.50;;
39314;SDS011;28703;44.412;11.918;2023-10-19T11:18:03;14.70;;;12.90;;
39314;SDS011;28703;44.412;11.918;2023-10-19T11:20:30;14.90;;;13.40;;
39314;SDS011;28703;44.412;11.918;2023-10-19T11:22:57;16.38;;;14.68;;
39314;SDS011;28703;44.412;11.918;2023-10-19T11:25:28;16.52;;;14.48;;
39314;SDS011;28703;44.412;11.918;2023-10-19T11:27:59;16.08;;;14.48;;
39314;SDS011;28703;44.412;11.918;2023-10-19T11:30:27;16.15;;;14.55;;
39314;SDS011;28703;44.412;11.918;2023-10-19T11:32:56;16.15;;;14.35;;
39314;SDS011;28703;44.412;11.918;2023-10-19T11:35:26;15.32;;;13.73;;
39314;SDS011;28703;44.412;11.918;2023-10-19T11:37:57;15.82;;;14.02;;
39314;SDS011;28703;44.412;11.918;2023-10-19T11:42:53;15.65;;;14.05;;
39314;SDS011;28703;44.412;11.918;2023-10-19T11:45:25;15.38;;;12.95;;
39314;SDS011;28703;44.412;11.918;2023-10-19T11:47:52;17.88;;;16.05;;
39314;SDS011;28703;44.412;11.918;2023-10-19T11:50:18;19.38;;;17.33;;
39314;SDS011;28703;44.412;11.918;2023-10-19T11:52:44;19.95;;;17.85;;
39314;SDS011;28703;44.412;11.918;2023-10-19T11:55:11;20.40;;;17.40;;
39314;SDS011;28703;44.412;11.918;2023-10-19T11:57:41;20.08;;;17.98;;
39314;SDS011;28703;44.412;11.918;2023-10-19T12:00:09;21.65;;;18.25;;
39314;SDS011;28703;44.412;11.918;2023-10-19T12:02:39;18.15;;;16.08;;
39314;SDS011;28703;44.412;11.918;2023-10-19T12:05:07;20.40;;;18.25;;
39314;SDS011;28703;44.412;11.918;2023-10-19T12:07:37;19.52;;;17.42;;
39314;SDS011;28703;44.412;11.918;2023-10-19T12:10:12;19.55;;;17.45;;
39314;SDS011;28703;44.412;11.918;2023-10-19T12:12:38;19.38;;;17.20;;
39314;SDS011;28703;44.412;11.918;2023-10-19T12:15:04;19.63;;;17.05;;
39314;SDS011;28703;44.412;11.918;2023-10-19T12:17:31;21.83;;;17.63;;
39314;SDS011;28703;44.412;11.918;2023-10-19T12:19:58;20.15;;;18.00;;
39314;SDS011;28703;44.412;11.918;2023-10-19T12:22:24;22.15;;;18.63;;
39314;SDS011;28703;44.412;11.918;2023-10-19T12:24:53;23.65;;;20.02;;
39314;SDS011;28703;44.412;11.918;2023-10-19T12:27:21;22.67;;;18.27;;
39314;SDS011;28703;44.412;11.918;2023-10-19T12:29:49;22.33;;;19.15;;
39314;SDS011;28703;44.412;11.918;2023-10-19T12:32:17;22.80;;;19.13;;
39314;SDS011;28703;44.412;11.918;2023-10-19T12:34:43;23.67;;;20.38;;
39314;SDS011;28703;44.412;11.918;2023-10-19T12:37:10;22.15;;;19.15;;
39314;SDS011;28703;44.412;11.918;2023-10-19T12:39:38;25.65;;;21.40;;
39314;SDS011;28703;44.412;11.918;2023-10-19T12:42:12;24.88;;;20.27;;
39314;SDS011;28703;44.412;11.918;2023-10-19T12:44:39;25.83;;;20.52;;
39314;SDS011;28703;44.412;11.918;2023-10-19T12:47:09;28.80;;;22.98;;
39314;SDS011;28703;44.412;11.918;2023-10-19T12:49:42;30.33;;;24.02;;
39314;SDS011;28703;44.412;11.918;2023-10-19T12:52:10;31.23;;;24.58;;
39314;SDS011;28703;44.412;11.918;2023-10-19T12:54:36;30.48;;;24.13;;
39314;SDS011;28703;44.412;11.918;2023-10-19T12:57:03;32.58;;;24.02;;
39314;SDS011;28703;44.412;11.918;2023-10-19T12:59:32;36.85;;;25.65;;
39314;SDS011;28703;44.412;11.918;2023-10-19T13:01:59;30.15;;;24.13;;
39314;SDS011;28703;44.412;11.918;2023-10-19T13:04:28;36.58;;;25.52;;
39314;SDS011;28703;44.412;11.918;2023-10-19T13:06:56;35.25;;;27.02;;
39314;SDS011;28703;44.412;11.918;2023-10-19T13:09:27;39.55;;;27.48;;
39314;SDS011;28703;44.412;11.918;2023-10-19T13:11:57;40.80;;;28.15;;
39314;SDS011;28703;44.412;11.918;2023-10-19T13:14:23;44.13;;;28.23;;
39314;SDS011;28703;44.412;11.918;2023-10-19T13:16:50;39.58;;;27.33;;
39314;SDS011;28703;44.412;11.918;2023-10-19T13:19:17;41.92;;;29.38;;
39314;SDS011;28703;44.412;11.918;2023-10-19T13:21:49;42.60;;;29.25;;
39314;SDS011;28703;44.412;11.918;2023-10-19T13:24:15;44.80;;;29.23;;
39314;SDS011;28703;44.412;11.918;2023-10-19T13:26:43;47.75;;;30.88;;
39314;SDS011;28703;44.412;11.918;2023-10-19T13:29:12;50.30;;;30.95;;
39314;SDS011;28703;44.412;11.918;2023-10-19T13:31:40;46.60;;;30.30;;
39314;SDS011;28703;44.412;11.918;2023-10-19T13:34:06;41.33;;;28.00;;
39314;SDS011;28703;44.412;11.918;2023-10-19T13:36:35;38.45;;;26.40;;
39314;SDS011;28703;44.412;11.918;2023-10-19T13:39:02;38.58;;;27.08;;
39314;SDS011;28703;44.412;11.918;2023-10-19T13:41:28;39.90;;;28.17;;
39314;SDS011;28703;44.412;11.918;2023-10-19T13:43:54;38.63;;;27.63;;
39314;SDS011;28703;44.412;11.918;2023-10-19T13:46:20;39.45;;;27.70;;
39314;SDS011;28703;44.412;11.918;2023-10-19T13:48:49;43.88;;;31.17;;
39314;SDS011;28703;44.412;11.918;2023-10-19T13:51:16;43.10;;;29.30;;
39314;SDS011;28703;44.412;11.918;2023-10-19T13:53:44;37.05;;;26.13;;
39314;SDS011;28703;44.412;11.918;2023-10-19T13:56:10;42.85;;;27.75;;
39314;SDS011;28703;44.412;11.918;2023-10-19T13:58:37;41.60;;;26.65;;
39314;SDS011;28703;44.412;11.918;2023-10-19T14:01:07;36.67;;;25.02;;
39314;SDS011;28703;44.412;11.918;2023-10-19T14:03:34;36.90;;;26.58;;
39314;SDS011;28703;44.412;11.918;2023-10-19T14:06:02;38.10;;;26.50;;
39314;SDS011;28703;44.412;11.918;2023-10-19T14:08:28;38.03;;;25.55;;
39314;SDS011;28703;44.412;11.918;2023-10-19T14:11:02;35.40;;;25.60;;
39314;SDS011;28703;44.412;11.918;2023-10-19T14:13:28;35.95;;;26.00;;
39314;SDS011;28703;44.412;11.918;2023-10-19T14:15:54;38.22;;;25.98;;
39314;SDS011;28703;44.412;11.918;2023-10-19T14:18:20;33.55;;;25.13;;
39314;SDS011;28703;44.412;11.918;2023-10-19T14:20:46;34.13;;;24.30;;
39314;SDS011;28703;44.412;11.918;2023-10-19T14:23:13;33.67;;;24.23;;
39314;SDS011;28703;44.412;11.918;2023-10-19T14:25:39;33.00;;;22.63;;
39314;SDS011;28703;44.412;11.918;2023-10-19T14:28:05;36.58;;;26.17;;
39314;SDS011;28703;44.412;11.918;2023-10-19T14:30:35;35.13;;;25.23;;
39314;SDS011;28703;44.412;11.918;2023-10-19T14:33:01;32.67;;;23.52;;
39314;SDS011;28703;44.412;11.918;2023-10-19T14:35:27;31.52;;;22.45;;
39314;SDS011;28703;44.412;11.918;2023-10-19T14:37:54;35.97;;;24.70;;
39314;SDS011;28703;44.412;11.918;2023-10-19T14:40:21;36.17;;;26.17;;
39314;SDS011;28703;44.412;11.918;2023-10-19T14:42:50;37.00;;;25.38;;
39314;SDS011;28703;44.412;11.918;2023-10-19T14:45:20;36.92;;;25.38;;
39314;SDS011;28703;44.412;11.918;2023-10-19T14:47:51;38.47;;;25.17;;
39314;SDS011;28703;44.412;11.918;2023-10-19T14:50:17;40.42;;;26.80;;
39314;SDS011;28703;44.412;11.918;2023-10-19T14:52:45;37.75;;;27.02;;
39314;SDS011;28703;44.412;11.918;2023-10-19T14:55:12;37.33;;;26.08;;
39314;SDS011;28703;44.412;11.918;2023-10-19T14:57:42;41.17;;;27.63;;
39314;SDS011;28703;44.412;11.918;2023-10-19T15:00:10;38.67;;;26.23;;
39314;SDS011;28703;44.412;11.918;2023-10-19T15:02:41;44.15;;;28.35;;
39314;SDS011;28703;44.412;11.918;2023-10-19T15:05:10;38.08;;;27.23;;
39314;SDS011;28703;44.412;11.918;2023-10-19T15:07:40;43.17;;;27.33;;